sensor_id;sensor_type;location;lat;lon;timestamp;temperature;humidity
5842;DHT22;2947;52.276;9.946;2022-09-11T00:01:07;15.80;99.90
5842;DHT22;2947;52.276;9.946;2022-09-11T00:03:33;15.80;99.90
5842;DHT22;2947;52.276;9.946;2022-09-11T00:06:04;15.80;99.90
5842;DHT22;2947;52.276;9.946;2022-09-11T00:08:32;15.70;99.90
5842;DHT22;2947;52.276;9.946;2022-09-11T00:11:05;15.70;99.90
5842;DHT22;2947;52.276;9.946;2022-09-11T00:13:37;14.00;99.90
5842;DHT22;2947;52.276;9.946;2022-09-11T00:16:06;15.80;99.90
5842;DHT22;2947;52.276;9.946;2022-09-11T00:18:34;15.70;99.90
5842;DHT22;2947;52.276;9.946;2022-09-11T00:21:03;15.70;99.90
5842;DHT22;2947;52.276;9.946;2022-09-11T00:23:29;15.70;99.90
5842;DHT22;2947;52.276;9.946;2022-09-11T00:26:00;15.70;99.90
5842;DHT22;2947;52.276;9.946;2022-09-11T00:28:27;15.70;99.90
5842;DHT22;2947;52.276;9.946;2022-09-11T00:31:01;15.60;99.90
5842;DHT22;2947;52.276;9.946;2022-09-11T00:33:29;15.50;99.90
5842;DHT22;2947;52.276;9.946;2022-09-11T00:36:00;15.50;99.90
5842;DHT22;2947;52.276;9.946;2022-09-11T00:38:31;15.50;99.90
5842;DHT22;2947;52.276;9.946;2022-09-11T00:41:00;15.60;99.90
5842;DHT22;2947;52.276;9.946;2022-09-11T00:43:29;15.60;99.90
5842;DHT22;2947;52.276;9.946;2022-09-11T00:46:13;15.60;99.90
5842;DHT22;2947;52.276;9.946;2022-09-11T00:48:38;15.50;99.90
5842;DHT22;2947;52.276;9.946;2022-09-11T00:51:04;15.50;99.90
5842;DHT22;2947;52.276;9.946;2022-09-11T00:53:35;15.60;99.90
5842;DHT22;2947;52.276;9.946;2022-09-11T00:56:04;15.60;99.90
5842;DHT22;2947;52.276;9.946;2022-09-11T00:58:34;15.60;99.90
5842;DHT22;2947;52.276;9.946;2022-09-11T01:01:04;15.60;99.90
5842;DHT22;2947;52.276;9.946;2022-09-11T01:03:30;15.60;99.90
5842;DHT22;2947;52.276;9.946;2022-09-11T01:05:57;15.60;99.90
5842;DHT22;2947;52.276;9.946;2022-09-11T01:08:24;15.60;99.90
5842;DHT22;2947;52.276;9.946;2022-09-11T01:20:13;15.60;99.90
5842;DHT22;2947;52.276;9.946;2022-09-11T01:29:01;15.50;99.90
5842;DHT22;2947;52.276;9.946;2022-09-11T01:31:42;15.50;99.90
5842;DHT22;2947;52.276;9.946;2022-09-11T01:34:35;15.40;99.90
5842;DHT22;2947;52.276;9.946;2022-09-11T01:37:14;15.40;99.90
5842;DHT22;2947;52.276;9.946;2022-09-11T01:39:53;15.40;99.90
5842;DHT22;2947;52.276;9.946;2022-09-11T01:42:26;15.40;99.90
5842;DHT22;2947;52.276;9.946;2022-09-11T01:44:56;15.50;99.90
5842;DHT22;2947;52.276;9.946;2022-09-11T01:47:24;15.50;99.90
5842;DHT22;2947;52.276;9.946;2022-09-11T01:50:07;15.50;99.90
5842;DHT22;2947;52.276;9.946;2022-09-11T01:52:40;15.50;99.90
5842;DHT22;2947;52.276;9.946;2022-09-11T01:55:37;15.50;99.90
5842;DHT22;2947;52.276;9.946;2022-09-11T01:58:11;15.50;99.90
5842;DHT22;2947;52.276;9.946;2022-09-11T02:00:41;15.50;99.90
5842;DHT22;2947;52.276;9.946;2022-09-11T02:03:28;15.40;99.90
5842;DHT22;2947;52.276;9.946;2022-09-11T02:06:08;15.40;99.90
5842;DHT22;2947;52.276;9.946;2022-09-11T02:08:59;15.40;99.90
5842;DHT22;2947;52.276;9.946;2022-09-11T02:11:32;15.40;99.90
5842;DHT22;2947;52.276;9.946;2022-09-11T02:14:25;15.40;99.90
5842;DHT22;2947;52.276;9.946;2022-09-11T02:19:52;15.40;99.90
5842;DHT22;2947;52.276;9.946;2022-09-11T02:22:18;15.30;99.90
5842;DHT22;2947;52.276;9.946;2022-09-11T02:24:44;15.30;99.90
5842;DHT22;2947;52.276;9.946;2022-09-11T02:27:18;15.30;99.90
5842;DHT22;2947;52.276;9.946;2022-09-11T02:29:46;15.30;99.90
5842;DHT22;2947;52.276;9.946;2022-09-11T02:32:12;15.30;99.90
5842;DHT22;2947;52.276;9.946;2022-09-11T02:34:39;15.40;99.90
5842;DHT22;2947;52.276;9.946;2022-09-11T02:44:18;15.30;99.90
5842;DHT22;2947;52.276;9.946;2022-09-11T02:46:55;15.20;99.90
5842;DHT22;2947;52.276;9.946;2022-09-11T02:52:30;15.30;99.90
5842;DHT22;2947;52.276;9.946;2022-09-11T02:58:37;15.30;99.90
5842;DHT22;2947;52.276;9.946;2022-09-11T03:01:07;15.20;99.90
5842;DHT22;2947;52.276;9.946;2022-09-11T03:03:41;15.30;99.90
5842;DHT22;2947;52.276;9.946;2022-09-11T03:06:15;15.30;99.90
5842;DHT22;2947;52.276;9.946;2022-09-11T03:08:42;15.20;99.90
5842;DHT22;2947;52.276;9.946;2022-09-11T03:11:09;15.30;99.90
5842;DHT22;2947;52.276;9.946;2022-09-11T03:13:35;15.30;99.90
5842;DHT22;2947;52.276;9.946;2022-09-11T03:16:03;15.30;99.90
5842;DHT22;2947;52.276;9.946;2022-09-11T03:18:29;15.30;99.90
5842;DHT22;2947;52.276;9.946;2022-09-11T03:20:56;15.20;99.90
5842;DHT22;2947;52.276;9.946;2022-09-11T03:23:23;15.20;99.90
5842;DHT22;2947;52.276;9.946;2022-09-11T03:25:49;15.20;99.90
5842;DHT22;2947;52.276;9.946;2022-09-11T03:28:15;15.20;99.90
5842;DHT22;2947;52.276;9.946;2022-09-11T03:30:41;15.20;99.90
5842;DHT22;2947;52.276;9.946;2022-09-11T03:33:07;15.20;99.90
5842;DHT22;2947;52.276;9.946;2022-09-11T03:35:33;15.20;99.90
5842;DHT22;2947;52.276;9.946;2022-09-11T03:37:59;16.70;99.90
5842;DHT22;2947;52.276;9.946;2022-09-11T03:40:26;16.10;99.90
5842;DHT22;2947;52.276;9.946;2022-09-11T03:42:52;14.60;99.90
5842;DHT22;2947;52.276;9.946;2022-09-11T03:45:18;15.10;99.90
5842;DHT22;2947;52.276;9.946;2022-09-11T03:47:45;15.00;99.90
5842;DHT22;2947;52.276;9.946;2022-09-11T03:50:11;15.00;99.90
5842;DHT22;2947;52.276;9.946;2022-09-11T03:52:37;15.00;99.90
5842;DHT22;2947;52.276;9.946;2022-09-11T03:55:04;15.00;99.90
5842;DHT22;2947;52.276;9.946;2022-09-11T03:57:35;15.00;99.90
5842;DHT22;2947;52.276;9.946;2022-09-11T04:00:02;15.00;99.90
5842;DHT22;2947;52.276;9.946;2022-09-11T04:02:28;15.00;99.90
5842;DHT22;2947;52.276;9.946;2022-09-11T04:04:54;15.00;99.90
5842;DHT22;2947;52.276;9.946;2022-09-11T04:07:23;15.00;99.90
5842;DHT22;2947;52.276;9.946;2022-09-11T04:09:49;15.00;99.90
5842;DHT22;2947;52.276;9.946;2022-09-11T04:12:15;15.10;99.90
5842;DHT22;2947;52.276;9.946;2022-09-11T04:14:40;15.00;99.90
5842;DHT22;2947;52.276;9.946;2022-09-11T04:17:06;14.90;99.90
5842;DHT22;2947;52.276;9.946;2022-09-11T04:19:33;14.90;99.90
5842;DHT22;2947;52.276;9.946;2022-09-11T04:21:59;14.80;99.90
5842;DHT22;2947;52.276;9.946;2022-09-11T04:24:25;14.80;99.90
5842;DHT22;2947;52.276;9.946;2022-09-11T04:26:51;14.70;99.90
5842;DHT22;2947;52.276;9.946;2022-09-11T04:29:17;14.80;99.90
5842;DHT22;2947;52.276;9.946;2022-09-11T04:31:43;14.80;99.90
5842;DHT22;2947;52.276;9.946;2022-09-11T04:34:09;14.80;99.90
5842;DHT22;2947;52.276;9.946;2022-09-11T04:36:35;14.80;99.90
5842;DHT22;2947;52.276;9.946;2022-09-11T04:39:01;14.80;99.90
5842;DHT22;2947;52.276;9.946;2022-09-11T04:41:27;14.80;99.90
5842;DHT22;2947;52.276;9.946;2022-09-11T04:43:58;14.80;99.90
5842;DHT22;2947;52.276;9.946;2022-09-11T04:46:25;14.80;99.90
5842;DHT22;2947;52.276;9.946;2022-09-11T04:48:52;14.80;99.90
5842;DHT22;2947;52.276;9.946;2022-09-11T04:51:28;14.80;99.90
5842;DHT22;2947;52.276;9.946;2022-09-11T04:53:57;14.70;99.90
5842;DHT22;2947;52.276;9.946;2022-09-11T04:56:26;14.70;99.90
5842;DHT22;2947;52.276;9.946;2022-09-11T04:59:02;14.70;99.90
5842;DHT22;2947;52.276;9.946;2022-09-11T05:01:30;14.80;99.90
5842;DHT22;2947;52.276;9.946;2022-09-11T05:03:58;14.80;99.90
5842;DHT22;2947;52.276;9.946;2022-09-11T05:06:26;14.80;99.90
5842;DHT22;2947;52.276;9.946;2022-09-11T05:08:59;15.00;99.90
5842;DHT22;2947;52.276;9.946;2022-09-11T05:11:26;14.70;99.90
5842;DHT22;2947;52.276;9.946;2022-09-11T05:13:51;14.80;99.90
5842;DHT22;2947;52.276;9.946;2022-09-11T05:16:18;14.80;99.90
5842;DHT22;2947;52.276;9.946;2022-09-11T05:18:49;15.00;99.90
5842;DHT22;2947;52.276;9.946;2022-09-11T05:21:17;14.80;99.90
5842;DHT22;2947;52.276;9.946;2022-09-11T05:23:46;14.70;99.90
5842;DHT22;2947;52.276;9.946;2022-09-11T05:26:15;14.70;99.90
5842;DHT22;2947;52.276;9.946;2022-09-11T05:28:42;14.70;99.90
5842;DHT22;2947;52.276;9.946;2022-09-11T05:31:14;14.70;99.90
5842;DHT22;2947;52.276;9.946;2022-09-11T05:33:41;14.70;99.90
5842;DHT22;2947;52.276;9.946;2022-09-11T05:36:12;14.70;99.90
5842;DHT22;2947;52.276;9.946;2022-09-11T05:38:38;14.70;99.90
5842;DHT22;2947;52.276;9.946;2022-09-11T05:41:06;14.70;99.90
5842;DHT22;2947;52.276;9.946;2022-09-11T05:43:33;14.60;99.90
5842;DHT22;2947;52.276;9.946;2022-09-11T05:46:00;14.70;99.90
5842;DHT22;2947;52.276;9.946;2022-09-11T05:48:27;14.60;99.90
5842;DHT22;2947;52.276;9.946;2022-09-11T05:50:56;14.70;99.90
5842;DHT22;2947;52.276;9.946;2022-09-11T05:53:28;14.70;99.90
5842;DHT22;2947;52.276;9.946;2022-09-11T05:55:56;14.70;99.90
5842;DHT22;2947;52.276;9.946;2022-09-11T05:58:24;14.70;99.90
5842;DHT22;2947;52.276;9.946;2022-09-11T06:01:02;14.70;99.90
5842;DHT22;2947;52.276;9.946;2022-09-11T06:03:36;14.70;99.90
5842;DHT22;2947;52.276;9.946;2022-09-11T06:06:08;14.70;99.90
5842;DHT22;2947;52.276;9.946;2022-09-11T06:08:35;14.80;99.90
5842;DHT22;2947;52.276;9.946;2022-09-11T06:11:03;14.70;99.90
5842;DHT22;2947;52.276;9.946;2022-09-11T06:13:36;14.70;99.90
5842;DHT22;2947;52.276;9.946;2022-09-11T06:16:03;14.60;99.90
5842;DHT22;2947;52.276;9.946;2022-09-11T06:18:32;14.60;99.90
5842;DHT22;2947;52.276;9.946;2022-09-11T06:21:11;14.60;99.90
5842;DHT22;2947;52.276;9.946;2022-09-11T06:23:37;14.60;99.90
5842;DHT22;2947;52.276;9.946;2022-09-11T06:26:08;14.50;99.90
5842;DHT22;2947;52.276;9.946;2022-09-11T06:28:36;14.50;99.90
5842;DHT22;2947;52.276;9.946;2022-09-11T06:31:03;14.60;99.90
5842;DHT22;2947;52.276;9.946;2022-09-11T06:33:31;14.60;99.90
5842;DHT22;2947;52.276;9.946;2022-09-11T06:36:05;14.60;99.90
5842;DHT22;2947;52.276;9.946;2022-09-11T06:38:34;16.70;99.90
5842;DHT22;2947;52.276;9.946;2022-09-11T06:41:01;14.70;99.90
5842;DHT22;2947;52.276;9.946;2022-09-11T06:43:28;14.70;99.90
5842;DHT22;2947;52.276;9.946;2022-09-11T06:45:54;14.70;99.90
5842;DHT22;2947;52.276;9.946;2022-09-11T06:48:21;14.70;99.90
5842;DHT22;2947;52.276;9.946;2022-09-11T06:50:47;14.80;99.90
5842;DHT22;2947;52.276;9.946;2022-09-11T06:53:13;14.80;99.90
5842;DHT22;2947;52.276;9.946;2022-09-11T06:55:40;14.80;99.90
5842;DHT22;2947;52.276;9.946;2022-09-11T06:58:08;13.80;99.90
5842;DHT22;2947;52.276;9.946;2022-09-11T07:00:35;14.80;99.90
5842;DHT22;2947;52.276;9.946;2022-09-11T07:03:02;14.80;99.90
5842;DHT22;2947;52.276;9.946;2022-09-11T07:05:28;16.60;99.90
5842;DHT22;2947;52.276;9.946;2022-09-11T07:07:56;14.90;99.90
5842;DHT22;2947;52.276;9.946;2022-09-11T07:10:23;14.90;99.90
5842;DHT22;2947;52.276;9.946;2022-09-11T07:12:51;14.90;99.90
5842;DHT22;2947;52.276;9.946;2022-09-11T07:15:19;15.00;99.90
5842;DHT22;2947;52.276;9.946;2022-09-11T07:17:44;15.10;99.90
5842;DHT22;2947;52.276;9.946;2022-09-11T07:20:10;15.10;99.90
5842;DHT22;2947;52.276;9.946;2022-09-11T07:22:36;15.80;99.90
5842;DHT22;2947;52.276;9.946;2022-09-11T07:25:02;15.00;99.90
5842;DHT22;2947;52.276;9.946;2022-09-11T07:27:28;15.10;99.90
5842;DHT22;2947;52.276;9.946;2022-09-11T07:29:56;15.10;99.90
5842;DHT22;2947;52.276;9.946;2022-09-11T07:32:22;15.10;99.90
5842;DHT22;2947;52.276;9.946;2022-09-11T07:34:48;15.10;99.90
5842;DHT22;2947;52.276;9.946;2022-09-11T07:37:14;15.20;99.90
5842;DHT22;2947;52.276;9.946;2022-09-11T07:39:40;15.20;99.90
5842;DHT22;2947;52.276;9.946;2022-09-11T07:42:06;15.30;99.90
5842;DHT22;2947;52.276;9.946;2022-09-11T07:44:33;15.20;99.90
5842;DHT22;2947;52.276;9.946;2022-09-11T07:47:03;15.30;99.90
5842;DHT22;2947;52.276;9.946;2022-09-11T07:49:31;15.30;99.90
5842;DHT22;2947;52.276;9.946;2022-09-11T07:51:57;15.40;99.90
5842;DHT22;2947;52.276;9.946;2022-09-11T07:54:23;16.30;99.90
5842;DHT22;2947;52.276;9.946;2022-09-11T07:56:51;15.50;99.90
5842;DHT22;2947;52.276;9.946;2022-09-11T07:59:17;15.50;99.90
5842;DHT22;2947;52.276;9.946;2022-09-11T08:01:43;15.50;99.90
5842;DHT22;2947;52.276;9.946;2022-09-11T08:04:10;15.60;99.90
5842;DHT22;2947;52.276;9.946;2022-09-11T08:06:38;15.60;99.90
5842;DHT22;2947;52.276;9.946;2022-09-11T08:09:06;15.60;99.90
5842;DHT22;2947;52.276;9.946;2022-09-11T08:11:39;15.70;99.90
5842;DHT22;2947;52.276;9.946;2022-09-11T08:14:07;15.70;99.90
5842;DHT22;2947;52.276;9.946;2022-09-11T08:16:35;15.70;99.90
5842;DHT22;2947;52.276;9.946;2022-09-11T08:19:02;15.80;99.90
5842;DHT22;2947;52.276;9.946;2022-09-11T08:21:28;15.80;99.90
5842;DHT22;2947;52.276;9.946;2022-09-11T08:23:56;15.80;99.90
5842;DHT22;2947;52.276;9.946;2022-09-11T08:26:25;15.90;99.90
5842;DHT22;2947;52.276;9.946;2022-09-11T08:28:54;16.40;99.90
5842;DHT22;2947;52.276;9.946;2022-09-11T08:31:23;15.80;99.90
5842;DHT22;2947;52.276;9.946;2022-09-11T08:33:54;15.80;99.90
5842;DHT22;2947;52.276;9.946;2022-09-11T08:36:22;15.80;99.90
5842;DHT22;2947;52.276;9.946;2022-09-11T08:38:48;15.80;99.90
5842;DHT22;2947;52.276;9.946;2022-09-11T08:44:22;15.90;99.90
5842;DHT22;2947;52.276;9.946;2022-09-11T08:47:04;15.90;99.90
5842;DHT22;2947;52.276;9.946;2022-09-11T08:49:35;15.90;99.90
5842;DHT22;2947;52.276;9.946;2022-09-11T08:52:04;15.90;99.90
5842;DHT22;2947;52.276;9.946;2022-09-11T08:54:35;16.00;99.90
5842;DHT22;2947;52.276;9.946;2022-09-11T09:05:00;16.10;99.90
5842;DHT22;2947;52.276;9.946;2022-09-11T09:10:59;16.30;99.90
5842;DHT22;2947;52.276;9.946;2022-09-11T09:13:49;16.30;99.90
5842;DHT22;2947;52.276;9.946;2022-09-11T09:24:48;16.50;99.90
5842;DHT22;2947;52.276;9.946;2022-09-11T09:30:21;16.60;99.90
5842;DHT22;2947;52.276;9.946;2022-09-11T09:33:17;16.70;99.90
5842;DHT22;2947;52.276;9.946;2022-09-11T09:35:49;16.70;99.90
5842;DHT22;2947;52.276;9.946;2022-09-11T09:38:19;16.90;99.90
5842;DHT22;2947;52.276;9.946;2022-09-11T09:44:12;17.10;99.90
5842;DHT22;2947;52.276;9.946;2022-09-11T09:46:59;17.10;99.90
5842;DHT22;2947;52.276;9.946;2022-09-11T09:49:28;17.20;99.90
5842;DHT22;2947;52.276;9.946;2022-09-11T09:51:58;17.20;99.90
5842;DHT22;2947;52.276;9.946;2022-09-11T09:54:29;17.30;99.90
5842;DHT22;2947;52.276;9.946;2022-09-11T09:57:07;17.30;99.90
5842;DHT22;2947;52.276;9.946;2022-09-11T09:59:56;17.40;99.90
5842;DHT22;2947;52.276;9.946;2022-09-11T10:05:27;17.80;99.90
5842;DHT22;2947;52.276;9.946;2022-09-11T10:08:03;17.50;99.90
5842;DHT22;2947;52.276;9.946;2022-09-11T10:10:37;17.80;99.90
5842;DHT22;2947;52.276;9.946;2022-09-11T10:13:25;17.70;99.90
5842;DHT22;2947;52.276;9.946;2022-09-11T10:15:58;17.70;99.90
5842;DHT22;2947;52.276;9.946;2022-09-11T10:26:41;18.00;99.90
5842;DHT22;2947;52.276;9.946;2022-09-11T10:29:26;18.10;99.90
5842;DHT22;2947;52.276;9.946;2022-09-11T10:31:59;18.10;99.90
5842;DHT22;2947;52.276;9.946;2022-09-11T10:34:36;18.20;98.80
5842;DHT22;2947;52.276;9.946;2022-09-11T10:39:37;18.20;99.90
5842;DHT22;2947;52.276;9.946;2022-09-11T10:42:12;18.20;99.90
5842;DHT22;2947;52.276;9.946;2022-09-11T10:44:49;18.20;99.90
5842;DHT22;2947;52.276;9.946;2022-09-11T10:52:54;18.30;83.70
5842;DHT22;2947;52.276;9.946;2022-09-11T10:56:11;17.90;61.90
5842;DHT22;2947;52.276;9.946;2022-09-11T10:58:32;18.40;56.10
5842;DHT22;2947;52.276;9.946;2022-09-11T11:01:00;18.30;69.40
5842;DHT22;2947;52.276;9.946;2022-09-11T11:03:27;18.40;97.50
5842;DHT22;2947;52.276;9.946;2022-09-11T11:11:50;18.40;54.10
5842;DHT22;2947;52.276;9.946;2022-09-11T11:36:00;18.80;60.40
5842;DHT22;2947;52.276;9.946;2022-09-11T11:38:51;18.90;56.40
5842;DHT22;2947;52.276;9.946;2022-09-11T11:44:49;19.00;56.10
5842;DHT22;2947;52.276;9.946;2022-09-11T11:47:18;19.00;67.50
5842;DHT22;2947;52.276;9.946;2022-09-11T11:53:48;19.20;41.90
5842;DHT22;2947;52.276;9.946;2022-09-11T11:56:30;19.20;16.70
5842;DHT22;2947;52.276;9.946;2022-09-11T11:59:35;19.20;17.50
5842;DHT22;2947;52.276;9.946;2022-09-11T12:09:53;19.40;21.40
5842;DHT22;2947;52.276;9.946;2022-09-11T12:12:25;19.80;24.00
5842;DHT22;2947;52.276;9.946;2022-09-11T12:15:04;19.50;37.80
5842;DHT22;2947;52.276;9.946;2022-09-11T12:17:34;19.50;19.00
5842;DHT22;2947;52.276;9.946;2022-09-11T12:22:44;19.60;20.40
5842;DHT22;2947;52.276;9.946;2022-09-11T12:32:47;19.80;1.00
5842;DHT22;2947;52.276;9.946;2022-09-11T12:35:45;19.80;1.00
5842;DHT22;2947;52.276;9.946;2022-09-11T12:38:31;19.90;99.90
5842;DHT22;2947;52.276;9.946;2022-09-11T12:41:13;20.00;99.90
5842;DHT22;2947;52.276;9.946;2022-09-11T12:46:10;20.30;22.90
5842;DHT22;2947;52.276;9.946;2022-09-11T12:51:39;20.30;99.90
5842;DHT22;2947;52.276;9.946;2022-09-11T12:54:29;20.30;99.90
5842;DHT22;2947;52.276;9.946;2022-09-11T12:57:26;20.50;99.90
5842;DHT22;2947;52.276;9.946;2022-09-11T12:59:56;20.50;99.90
5842;DHT22;2947;52.276;9.946;2022-09-11T13:02:34;20.70;99.90
5842;DHT22;2947;52.276;9.946;2022-09-11T13:05:02;20.70;1.00
5842;DHT22;2947;52.276;9.946;2022-09-11T13:07:45;20.90;1.00
5842;DHT22;2947;52.276;9.946;2022-09-11T13:10:33;20.90;99.90
5842;DHT22;2947;52.276;9.946;2022-09-11T13:13:02;21.20;99.90
5842;DHT22;2947;52.276;9.946;2022-09-11T13:15:35;21.30;1.00
5842;DHT22;2947;52.276;9.946;2022-09-11T13:18:34;21.40;1.00
5842;DHT22;2947;52.276;9.946;2022-09-11T13:21:11;21.50;85.80
5842;DHT22;2947;52.276;9.946;2022-09-11T13:23:38;21.60;99.90
5842;DHT22;2947;52.276;9.946;2022-09-11T13:26:10;21.70;1.00
5842;DHT22;2947;52.276;9.946;2022-09-11T13:28:48;21.60;14.20
5842;DHT22;2947;52.276;9.946;2022-09-11T13:31:18;21.60;1.00
5842;DHT22;2947;52.276;9.946;2022-09-11T13:33:50;21.90;1.00
5842;DHT22;2947;52.276;9.946;2022-09-11T13:36:20;21.80;99.90
5842;DHT22;2947;52.276;9.946;2022-09-11T13:38:53;21.70;55.80
5842;DHT22;2947;52.276;9.946;2022-09-11T13:41:30;21.70;99.90
5842;DHT22;2947;52.276;9.946;2022-09-11T13:44:00;21.60;99.90
5842;DHT22;2947;52.276;9.946;2022-09-11T13:51:40;21.50;1.00
5842;DHT22;2947;52.276;9.946;2022-09-11T13:54:25;21.50;1.00
5842;DHT22;2947;52.276;9.946;2022-09-11T14:01:55;21.60;99.90
5842;DHT22;2947;52.276;9.946;2022-09-11T14:04:27;20.00;99.90
5842;DHT22;2947;52.276;9.946;2022-09-11T14:06:54;21.70;1.00
5842;DHT22;2947;52.276;9.946;2022-09-11T14:09:21;21.70;99.90
5842;DHT22;2947;52.276;9.946;2022-09-11T14:11:47;21.70;1.00
5842;DHT22;2947;52.276;9.946;2022-09-11T14:14:25;21.70;99.90
5842;DHT22;2947;52.276;9.946;2022-09-11T14:16:55;21.70;59.50
5842;DHT22;2947;52.276;9.946;2022-09-11T14:19:30;21.70;99.90
5842;DHT22;2947;52.276;9.946;2022-09-11T14:21:57;22.60;1.00
5842;DHT22;2947;52.276;9.946;2022-09-11T14:24:33;21.70;99.90
5842;DHT22;2947;52.276;9.946;2022-09-11T14:30:21;21.50;99.90
5842;DHT22;2947;52.276;9.946;2022-09-11T14:33:21;21.40;99.90
5842;DHT22;2947;52.276;9.946;2022-09-11T14:35:48;21.40;1.00
5842;DHT22;2947;52.276;9.946;2022-09-11T14:38:18;21.40;99.90
5842;DHT22;2947;52.276;9.946;2022-09-11T14:40:57;21.40;99.90
5842;DHT22;2947;52.276;9.946;2022-09-11T14:43:29;21.40;99.90
5842;DHT22;2947;52.276;9.946;2022-09-11T14:45:58;21.30;1.00
5842;DHT22;2947;52.276;9.946;2022-09-11T14:48:27;21.40;99.90
5842;DHT22;2947;52.276;9.946;2022-09-11T14:50:53;21.30;1.00
5842;DHT22;2947;52.276;9.946;2022-09-11T14:53:30;21.30;1.00
5842;DHT22;2947;52.276;9.946;2022-09-11T14:55:59;21.30;99.90
5842;DHT22;2947;52.276;9.946;2022-09-11T14:58:27;21.20;1.00
5842;DHT22;2947;52.276;9.946;2022-09-11T15:00:53;21.10;1.00
5842;DHT22;2947;52.276;9.946;2022-09-11T15:03:21;20.90;1.00
5842;DHT22;2947;52.276;9.946;2022-09-11T15:05:56;20.90;1.00
5842;DHT22;2947;52.276;9.946;2022-09-11T15:08:24;21.00;99.90
5842;DHT22;2947;52.276;9.946;2022-09-11T15:10:50;20.80;99.90
5842;DHT22;2947;52.276;9.946;2022-09-11T15:13:18;20.80;99.90
5842;DHT22;2947;52.276;9.946;2022-09-11T15:15:45;20.90;99.90
5842;DHT22;2947;52.276;9.946;2022-09-11T15:18:11;20.90;1.00
5842;DHT22;2947;52.276;9.946;2022-09-11T15:20:37;20.80;1.00
5842;DHT22;2947;52.276;9.946;2022-09-11T15:23:03;20.60;99.90
5842;DHT22;2947;52.276;9.946;2022-09-11T15:25:29;20.70;99.90
5842;DHT22;2947;52.276;9.946;2022-09-11T15:27:56;20.60;99.90
5842;DHT22;2947;52.276;9.946;2022-09-11T15:30:22;20.60;99.90
5842;DHT22;2947;52.276;9.946;2022-09-11T15:32:50;20.50;99.90
5842;DHT22;2947;52.276;9.946;2022-09-11T15:35:15;20.70;99.90
5842;DHT22;2947;52.276;9.946;2022-09-11T15:37:43;20.50;99.90
5842;DHT22;2947;52.276;9.946;2022-09-11T15:40:11;20.40;99.90
5842;DHT22;2947;52.276;9.946;2022-09-11T15:42:37;20.30;1.00
5842;DHT22;2947;52.276;9.946;2022-09-11T15:45:03;20.20;98.50
5842;DHT22;2947;52.276;9.946;2022-09-11T15:47:29;20.20;45.60
5842;DHT22;2947;52.276;9.946;2022-09-11T15:49:58;20.30;15.10
5842;DHT22;2947;52.276;9.946;2022-09-11T15:52:24;20.30;99.90
5842;DHT22;2947;52.276;9.946;2022-09-11T15:54:52;20.20;99.90
5842;DHT22;2947;52.276;9.946;2022-09-11T15:57:17;20.10;99.90
5842;DHT22;2947;52.276;9.946;2022-09-11T15:59:43;20.10;99.90
5842;DHT22;2947;52.276;9.946;2022-09-11T16:02:10;20.30;55.50
5842;DHT22;2947;52.276;9.946;2022-09-11T16:04:39;20.30;1.00
5842;DHT22;2947;52.276;9.946;2022-09-11T16:07:05;20.40;99.90
5842;DHT22;2947;52.276;9.946;2022-09-11T16:09:31;20.40;99.90
5842;DHT22;2947;52.276;9.946;2022-09-11T16:11:57;20.40;1.00
5842;DHT22;2947;52.276;9.946;2022-09-11T16:14:28;20.30;99.90
5842;DHT22;2947;52.276;9.946;2022-09-11T16:16:57;20.30;99.90
5842;DHT22;2947;52.276;9.946;2022-09-11T16:19:26;20.30;26.80
5842;DHT22;2947;52.276;9.946;2022-09-11T16:21:56;20.20;1.00
5842;DHT22;2947;52.276;9.946;2022-09-11T16:24:26;20.30;1.00
5842;DHT22;2947;52.276;9.946;2022-09-11T16:26:53;20.30;99.90
5842;DHT22;2947;52.276;9.946;2022-09-11T16:29:25;21.00;1.00
5842;DHT22;2947;52.276;9.946;2022-09-11T16:31:53;20.20;34.50
5842;DHT22;2947;52.276;9.946;2022-09-11T16:34:21;20.10;99.90
5842;DHT22;2947;52.276;9.946;2022-09-11T16:36:46;20.20;1.00
5842;DHT22;2947;52.276;9.946;2022-09-11T16:39:14;20.10;99.90
5842;DHT22;2947;52.276;9.946;2022-09-11T16:41:42;20.10;48.10
5842;DHT22;2947;52.276;9.946;2022-09-11T16:44:10;20.10;99.90
5842;DHT22;2947;52.276;9.946;2022-09-11T16:46:37;20.10;99.90
5842;DHT22;2947;52.276;9.946;2022-09-11T16:49:04;20.10;1.00
5842;DHT22;2947;52.276;9.946;2022-09-11T16:51:30;20.10;99.90
5842;DHT22;2947;52.276;9.946;2022-09-11T16:53:58;20.00;1.00
5842;DHT22;2947;52.276;9.946;2022-09-11T16:56:25;19.90;99.90
5842;DHT22;2947;52.276;9.946;2022-09-11T16:58:52;19.90;1.00
5842;DHT22;2947;52.276;9.946;2022-09-11T17:01:21;19.90;1.00
5842;DHT22;2947;52.276;9.946;2022-09-11T17:03:51;19.80;1.00
5842;DHT22;2947;52.276;9.946;2022-09-11T17:06:18;19.80;99.90
5842;DHT22;2947;52.276;9.946;2022-09-11T17:08:45;19.70;99.90
5842;DHT22;2947;52.276;9.946;2022-09-11T17:11:13;19.70;99.90
5842;DHT22;2947;52.276;9.946;2022-09-11T17:13:41;19.70;1.00
5842;DHT22;2947;52.276;9.946;2022-09-11T17:16:10;20.40;99.90
5842;DHT22;2947;52.276;9.946;2022-09-11T17:18:39;19.60;3.10
5842;DHT22;2947;52.276;9.946;2022-09-11T17:21:07;19.60;99.90
5842;DHT22;2947;52.276;9.946;2022-09-11T17:23:35;19.50;1.00
5842;DHT22;2947;52.276;9.946;2022-09-11T17:26:06;19.60;1.00
5842;DHT22;2947;52.276;9.946;2022-09-11T17:28:34;19.50;1.00
5842;DHT22;2947;52.276;9.946;2022-09-11T17:31:02;20.10;8.70
5842;DHT22;2947;52.276;9.946;2022-09-11T17:33:28;19.40;94.00
5842;DHT22;2947;52.276;9.946;2022-09-11T17:35:57;19.40;95.70
5842;DHT22;2947;52.276;9.946;2022-09-11T17:38:24;19.30;99.90
5842;DHT22;2947;52.276;9.946;2022-09-11T17:40:55;19.60;99.90
5842;DHT22;2947;52.276;9.946;2022-09-11T17:43:22;19.20;99.90
5842;DHT22;2947;52.276;9.946;2022-09-11T17:45:48;19.20;99.90
5842;DHT22;2947;52.276;9.946;2022-09-11T17:48:19;19.20;99.90
5842;DHT22;2947;52.276;9.946;2022-09-11T17:50:46;19.10;99.90
5842;DHT22;2947;52.276;9.946;2022-09-11T17:53:13;19.10;99.90
5842;DHT22;2947;52.276;9.946;2022-09-11T17:55:39;19.00;99.90
5842;DHT22;2947;52.276;9.946;2022-09-11T17:58:06;19.80;99.90
5842;DHT22;2947;52.276;9.946;2022-09-11T18:00:32;19.00;99.90
5842;DHT22;2947;52.276;9.946;2022-09-11T18:02:59;19.40;99.90
5842;DHT22;2947;52.276;9.946;2022-09-11T18:05:25;19.50;99.90
5842;DHT22;2947;52.276;9.946;2022-09-11T18:07:53;18.80;99.90
5842;DHT22;2947;52.276;9.946;2022-09-11T18:10:25;18.80;1.00
5842;DHT22;2947;52.276;9.946;2022-09-11T18:12:51;18.70;1.00
5842;DHT22;2947;52.276;9.946;2022-09-11T18:15:18;18.70;1.00
5842;DHT22;2947;52.276;9.946;2022-09-11T18:17:44;18.70;1.00
5842;DHT22;2947;52.276;9.946;2022-09-11T18:20:12;18.60;1.00
5842;DHT22;2947;52.276;9.946;2022-09-11T18:22:39;18.60;1.00
5842;DHT22;2947;52.276;9.946;2022-09-11T18:25:05;18.60;1.00
5842;DHT22;2947;52.276;9.946;2022-09-11T18:27:31;18.50;1.00
5842;DHT22;2947;52.276;9.946;2022-09-11T18:29:56;18.50;1.00
5842;DHT22;2947;52.276;9.946;2022-09-11T18:32:23;18.50;1.00
5842;DHT22;2947;52.276;9.946;2022-09-11T18:34:49;18.40;1.00
5842;DHT22;2947;52.276;9.946;2022-09-11T18:37:14;18.40;1.00
5842;DHT22;2947;52.276;9.946;2022-09-11T18:39:42;18.40;1.00
5842;DHT22;2947;52.276;9.946;2022-09-11T18:42:08;18.30;1.00
5842;DHT22;2947;52.276;9.946;2022-09-11T18:44:34;18.30;1.00
5842;DHT22;2947;52.276;9.946;2022-09-11T18:47:00;18.20;1.00
5842;DHT22;2947;52.276;9.946;2022-09-11T18:49:25;18.20;1.00
5842;DHT22;2947;52.276;9.946;2022-09-11T18:51:51;18.20;1.00
5842;DHT22;2947;52.276;9.946;2022-09-11T18:54:19;18.10;1.00
5842;DHT22;2947;52.276;9.946;2022-09-11T18:56:46;18.10;1.00